createdAt,value
2022-10-07T00:00:56.226Z,19.77
2022-10-07T00:01:58.880Z,19.05
2022-10-07T00:03:01.473Z,21.20
2022-10-07T00:04:04.170Z,20.10
2022-10-07T00:05:07.517Z,19.77
2022-10-07T00:06:13.668Z,19.75
2022-10-07T00:07:16.506Z,20.17
2022-10-07T00:08:18.943Z,18.75
2022-10-07T00:09:21.442Z,19.23
2022-10-07T00:10:23.947Z,19.60
2022-10-07T00:11:28.527Z,18.48
2022-10-07T00:12:31.195Z,19.33
2022-10-07T00:13:34.126Z,19.67
2022-10-07T00:14:36.588Z,19.33
2022-10-07T00:15:39.559Z,19.23
2022-10-07T00:16:42.341Z,19.75
2022-10-07T00:17:45.574Z,18.48
2022-10-07T00:18:48.806Z,19.48
2022-10-07T00:19:51.266Z,18.65
2022-10-07T00:20:53.942Z,19.38
2022-10-07T00:21:56.512Z,19.85
2022-10-07T00:22:59.709Z,19.33
2022-10-07T00:24:02.549Z,18.33
2022-10-07T00:25:05.385Z,18.63
2022-10-07T00:26:10.235Z,18.02
2022-10-07T00:27:12.707Z,18.90
2022-10-07T00:28:19.402Z,19.85
2022-10-07T00:29:21.963Z,18.92
2022-10-07T00:30:27.105Z,18.15
2022-10-07T00:31:35.250Z,17.55
2022-10-07T00:32:37.518Z,17.70
2022-10-07T00:33:42.326Z,17.95
2022-10-07T00:34:44.817Z,18.00
2022-10-07T00:35:49.370Z,18.23
2022-10-07T00:36:51.697Z,17.08
2022-10-07T00:37:54.064Z,18.00
2022-10-07T00:38:58.604Z,18.52
2022-10-07T00:40:00.937Z,18.55
2022-10-07T00:41:03.453Z,17.88
2022-10-07T00:42:05.888Z,18.38
2022-10-07T00:43:25.238Z,18.73
2022-10-07T00:44:40.100Z,18.05
2022-10-07T00:45:45.757Z,17.65
2022-10-07T00:46:48.445Z,16.95
2022-10-07T00:47:51.842Z,17.77
2022-10-07T00:48:54.896Z,17.23
2022-10-07T00:50:10.421Z,17.40
2022-10-07T00:51:16.372Z,17.73
2022-10-07T00:52:22.139Z,18.88
2022-10-07T00:53:27.525Z,17.70
2022-10-07T00:54:30.417Z,17.08
2022-10-07T00:55:32.990Z,17.98
2022-10-07T00:56:35.643Z,17.10
2022-10-07T00:57:39.701Z,18.08
2022-10-07T00:59:48.190Z,16.77
2022-10-07T01:00:51.082Z,17.60
2022-10-07T01:01:53.490Z,16.38
2022-10-07T01:02:55.923Z,17.27
2022-10-07T01:03:58.392Z,16.42
2022-10-07T01:05:03.650Z,18.40
2022-10-07T01:06:06.596Z,17.10
2022-10-07T01:07:09.571Z,16.95
2022-10-07T01:08:12.627Z,16.85
2022-10-07T01:09:15.194Z,16.52
2022-10-07T01:10:20.379Z,16.48
2022-10-07T01:11:33.772Z,15.32
2022-10-07T01:12:51.709Z,15.95
2022-10-07T01:13:55.811Z,15.40
2022-10-07T01:16:56.145Z,13.93
2022-10-07T01:18:26.098Z,14.90
2022-10-07T01:19:47.260Z,14.60
2022-10-07T01:21:05.033Z,14.25
2022-10-07T01:22:13.557Z,14.43
2022-10-07T01:23:46.112Z,14.55
2022-10-07T01:24:51.438Z,15.80
2022-10-07T01:26:48.476Z,15.70
2022-10-07T01:27:57.263Z,14.05
2022-10-07T01:29:04.259Z,15.40
2022-10-07T01:30:08.421Z,15.30
2022-10-07T01:32:22.181Z,14.75
2022-10-07T01:33:29.614Z,15.45
2022-10-07T01:34:34.435Z,16.45
2022-10-07T01:35:37.515Z,15.30
2022-10-07T01:36:51.140Z,16.35
2022-10-07T01:38:00.678Z,16.00
2022-10-07T01:39:09.907Z,15.75
2022-10-07T01:40:16.191Z,16.40
2022-10-07T01:41:23.170Z,16.50
2022-10-07T01:42:28.987Z,16.55
2022-10-07T01:43:33.101Z,17.60
2022-10-07T01:45:41.320Z,15.93
2022-10-07T01:46:44.624Z,17.25
2022-10-07T01:47:50.589Z,17.70
2022-10-07T01:48:54.629Z,17.90
2022-10-07T01:49:57.218Z,17.42
2022-10-07T01:51:02.340Z,17.40
2022-10-07T01:52:07.567Z,17.75
2022-10-07T01:53:27.654Z,17.60
2022-10-07T01:54:50.769Z,17.50
2022-10-07T01:57:18.487Z,16.13
2022-10-07T01:58:50.951Z,17.20
2022-10-07T02:00:11.496Z,17.90
2022-10-07T02:01:29.046Z,17.35
2022-10-07T02:03:00.847Z,17.80
2022-10-07T02:04:25.669Z,17.58
2022-10-07T02:05:40.100Z,17.95
2022-10-07T02:07:05.352Z,18.55
2022-10-07T02:08:22.918Z,18.10
2022-10-07T02:09:40.410Z,18.35
2022-10-07T02:11:00.651Z,17.45
2022-10-07T02:12:13.440Z,20.15
2022-10-07T02:13:48.702Z,18.65
2022-10-07T02:15:05.855Z,18.23
2022-10-07T02:16:48.422Z,17.95
2022-10-07T02:18:02.871Z,17.60
2022-10-07T02:19:15.754Z,17.77
2022-10-07T02:20:21.527Z,17.50
2022-10-07T02:21:29.738Z,16.48
2022-10-07T02:22:34.408Z,17.45
2022-10-07T02:23:40.863Z,17.90
2022-10-07T02:24:47.397Z,17.17
2022-10-07T02:25:53.808Z,16.67
2022-10-07T02:26:59.341Z,16.45
2022-10-07T02:28:05.745Z,15.85
2022-10-07T02:29:12.815Z,15.77
2022-10-07T02:30:19.064Z,16.42
2022-10-07T02:31:26.658Z,16.58
2022-10-07T02:32:30.920Z,15.85
2022-10-07T02:34:41.312Z,14.95
2022-10-07T02:35:46.753Z,15.27
2022-10-07T02:36:53.115Z,16.23
2022-10-07T02:38:00.394Z,15.77
2022-10-07T02:39:05.132Z,15.90
2022-10-07T02:40:12.261Z,17.23
2022-10-07T02:41:33.344Z,16.80
2022-10-07T02:42:55.853Z,16.63
2022-10-07T02:44:07.790Z,16.25
2022-10-07T02:45:21.224Z,15.63
2022-10-07T02:46:32.907Z,16.55
2022-10-07T02:47:51.380Z,15.10
2022-10-07T02:49:09.748Z,15.35
2022-10-07T02:50:17.901Z,15.10
2022-10-07T02:51:25.410Z,14.82
2022-10-07T02:52:31.541Z,16.02
2022-10-07T02:53:36.565Z,16.75
2022-10-07T02:54:44.586Z,16.05
2022-10-07T02:55:50.500Z,16.15
2022-10-07T02:56:56.548Z,14.68
2022-10-07T02:58:04.601Z,17.08
2022-10-07T02:59:10.136Z,16.83
2022-10-07T03:00:14.564Z,15.85
2022-10-07T03:01:29.898Z,16.30
2022-10-07T03:02:42.564Z,16.20
2022-10-07T03:03:46.013Z,16.42
2022-10-07T03:04:48.726Z,16.35
2022-10-07T03:05:52.279Z,17.10
2022-10-07T03:06:55.115Z,16.88
2022-10-07T03:08:06.418Z,16.48
2022-10-07T03:09:09.449Z,18.65
2022-10-07T03:10:11.897Z,16.88
2022-10-07T03:11:14.426Z,16.25
2022-10-07T03:12:17.431Z,16.83
2022-10-07T03:13:19.911Z,17.02
2022-10-07T03:14:27.386Z,17.20
2022-10-07T03:15:29.794Z,15.88
2022-10-07T03:16:32.779Z,16.83
2022-10-07T03:17:35.330Z,16.70
2022-10-07T03:18:38.040Z,17.98
2022-10-07T03:19:46.903Z,16.38
2022-10-07T03:20:51.254Z,16.35
2022-10-07T03:21:54.412Z,17.27
2022-10-07T03:22:56.717Z,16.52
2022-10-07T03:24:00.991Z,17.23
2022-10-07T03:25:06.833Z,16.00
2022-10-07T03:26:09.221Z,16.60
2022-10-07T03:27:11.798Z,16.40
2022-10-07T03:28:15.344Z,16.67
2022-10-07T03:29:17.888Z,18.45
2022-10-07T03:30:24.426Z,16.38
2022-10-07T03:31:29.247Z,16.23
2022-10-07T03:32:34.364Z,16.35
2022-10-07T03:33:37.565Z,16.50
2022-10-07T03:34:41.309Z,15.88
2022-10-07T03:35:44.024Z,15.32
2022-10-07T03:36:46.671Z,15.90
2022-10-07T03:37:49.042Z,16.38
2022-10-07T03:38:52.068Z,15.30
2022-10-07T03:39:55.380Z,16.05
2022-10-07T03:40:57.932Z,17.48
2022-10-07T03:42:01.057Z,16.15
2022-10-07T03:43:07.811Z,16.75
2022-10-07T03:44:10.170Z,15.73
2022-10-07T03:45:12.564Z,18.10
2022-10-07T03:46:14.933Z,17.25
2022-10-07T03:47:18.980Z,16.90
2022-10-07T03:48:21.697Z,19.40
2022-10-07T03:49:24.412Z,20.02
2022-10-07T03:50:27.132Z,23.58
2022-10-07T03:51:29.520Z,21.05
2022-10-07T03:52:32.205Z,20.80
2022-10-07T03:53:34.631Z,21.08
2022-10-07T03:54:37.913Z,20.10
2022-10-07T03:55:41.259Z,19.15
2022-10-07T03:56:47.861Z,18.98
2022-10-07T03:58:00.027Z,18.88
2022-10-07T03:59:10.366Z,18.65
2022-10-07T04:00:13.543Z,17.60
2022-10-07T04:01:28.258Z,17.60
2022-10-07T04:02:36.907Z,18.23
2022-10-07T04:03:39.392Z,17.30
2022-10-07T04:04:43.442Z,16.67
2022-10-07T04:06:01.562Z,17.45
2022-10-07T04:07:05.676Z,17.27
2022-10-07T04:08:15.443Z,17.15
2022-10-07T04:09:21.136Z,16.83
2022-10-07T04:10:24.878Z,16.67
2022-10-07T04:11:27.357Z,17.90
2022-10-07T04:12:33.628Z,15.05
2022-10-07T04:13:37.417Z,17.45
2022-10-07T04:14:40.872Z,16.65
2022-10-07T04:15:43.363Z,17.05
2022-10-07T04:16:46.053Z,15.38
2022-10-07T04:17:49.886Z,15.15
2022-10-07T04:18:56.235Z,16.52
2022-10-07T04:20:00.239Z,17.58
2022-10-07T04:21:03.211Z,14.80
2022-10-07T04:22:08.815Z,15.75
2022-10-07T04:23:12.677Z,16.08
2022-10-07T04:24:15.842Z,15.57
2022-10-07T04:25:37.766Z,15.40
2022-10-07T04:26:45.563Z,14.88
2022-10-07T04:27:57.168Z,16.35
2022-10-07T04:29:00.905Z,14.50
2022-10-07T04:30:05.081Z,14.40
2022-10-07T04:31:17.454Z,13.95
2022-10-07T04:32:25.121Z,14.15
2022-10-07T04:33:33.219Z,15.32
2022-10-07T04:34:35.457Z,16.15
2022-10-07T04:35:41.333Z,16.02
2022-10-07T04:36:44.589Z,16.90
2022-10-07T04:37:55.845Z,18.15
2022-10-07T04:39:02.608Z,19.00
2022-10-07T04:40:13.835Z,21.15
2022-10-07T04:41:16.681Z,21.35
2022-10-07T04:42:37.852Z,23.92
2022-10-07T04:43:40.404Z,25.55
2022-10-07T04:44:47.408Z,26.23
2022-10-07T04:45:53.873Z,23.40
2022-10-07T04:47:00.444Z,20.85
2022-10-07T04:48:08.572Z,21.33
2022-10-07T04:49:12.309Z,21.50
2022-10-07T04:50:14.666Z,18.13
2022-10-07T04:51:26.331Z,15.80
2022-10-07T04:52:36.194Z,15.43
2022-10-07T04:53:39.558Z,15.98
2022-10-07T04:54:43.367Z,14.77
2022-10-07T04:55:48.969Z,15.88
2022-10-07T04:56:52.203Z,14.52
2022-10-07T04:57:58.630Z,15.93
2022-10-07T04:59:01.031Z,16.15
2022-10-07T05:00:05.498Z,15.77
2022-10-07T05:01:10.027Z,15.98
2022-10-07T05:02:15.145Z,15.48
2022-10-07T05:03:20.223Z,16.35
2022-10-07T05:04:24.205Z,15.60
2022-10-07T05:05:31.275Z,16.95
2022-10-07T05:06:34.397Z,17.05
2022-10-07T05:07:36.817Z,16.65
2022-10-07T05:08:42.404Z,16.27
2022-10-07T05:09:46.128Z,16.52
2022-10-07T05:11:56.815Z,16.27
2022-10-07T05:12:59.089Z,18.63
2022-10-07T05:14:02.200Z,18.73
2022-10-07T05:15:06.751Z,20.48
2022-10-07T05:16:09.849Z,18.70
2022-10-07T05:17:14.009Z,19.85
2022-10-07T05:18:16.507Z,21.50
2022-10-07T05:19:20.464Z,22.65
2022-10-07T05:20:23.498Z,23.13
2022-10-07T05:21:25.988Z,23.27
2022-10-07T05:22:28.501Z,22.52
2022-10-07T05:23:31.929Z,22.33
2022-10-07T05:24:36.705Z,21.30
2022-10-07T05:25:39.169Z,19.30
2022-10-07T05:26:41.703Z,19.50
2022-10-07T05:27:44.982Z,19.67
2022-10-07T05:28:49.585Z,19.90
2022-10-07T05:29:57.489Z,18.88
2022-10-07T05:31:14.028Z,15.95
2022-10-07T05:32:18.773Z,16.15
2022-10-07T05:33:21.630Z,16.95
2022-10-07T05:34:25.381Z,16.08
2022-10-07T05:35:32.322Z,18.50
2022-10-07T05:36:35.360Z,17.42
2022-10-07T05:37:39.830Z,16.65
2022-10-07T05:38:42.322Z,16.30
2022-10-07T05:39:44.701Z,16.63
2022-10-07T05:41:02.416Z,16.17
2022-10-07T05:42:07.097Z,15.23
2022-10-07T05:43:16.203Z,14.20
2022-10-07T05:44:18.788Z,15.95
2022-10-07T05:45:22.733Z,15.45
2022-10-07T05:46:25.457Z,14.80
2022-10-07T05:47:33.486Z,13.60
2022-10-07T05:48:39.178Z,12.57
2022-10-07T05:49:44.330Z,13.15
2022-10-07T05:50:47.810Z,14.20
2022-10-07T05:51:50.738Z,11.77
2022-10-07T05:52:53.044Z,13.40
2022-10-07T05:53:58.692Z,12.48
2022-10-07T05:55:07.667Z,12.00
2022-10-07T05:56:12.860Z,12.85
2022-10-07T05:57:15.190Z,12.85
2022-10-07T05:58:19.460Z,12.93
2022-10-07T05:59:22.415Z,11.25
2022-10-07T06:00:25.291Z,12.63
2022-10-07T06:01:28.639Z,12.70
2022-10-07T06:02:34.915Z,12.50
2022-10-07T06:03:38.159Z,13.05
2022-10-07T06:04:43.556Z,12.10
2022-10-07T06:05:47.937Z,12.80
2022-10-07T06:06:52.394Z,12.05
2022-10-07T06:07:54.723Z,13.30
2022-10-07T06:09:17.068Z,12.50
2022-10-07T06:10:38.306Z,12.20
2022-10-07T06:11:59.700Z,12.25
2022-10-07T06:13:08.181Z,12.98
2022-10-07T06:14:12.508Z,11.65
2022-10-07T06:15:14.872Z,12.63
2022-10-07T06:16:24.155Z,12.40
2022-10-07T06:17:27.571Z,11.80
2022-10-07T06:18:33.012Z,12.60
2022-10-07T06:19:37.862Z,11.27
2022-10-07T06:20:40.299Z,12.02
2022-10-07T06:21:42.659Z,12.95
2022-10-07T06:22:46.536Z,12.20
2022-10-07T06:23:52.256Z,12.82
2022-10-07T06:25:01.185Z,11.25
2022-10-07T06:26:07.378Z,11.77
2022-10-07T06:27:10.198Z,12.32
2022-10-07T06:28:14.429Z,11.57
2022-10-07T06:29:16.946Z,10.52
2022-10-07T06:30:21.900Z,10.88
2022-10-07T06:31:26.030Z,10.65
2022-10-07T06:32:35.623Z,11.20
2022-10-07T06:33:38.656Z,11.20
2022-10-07T06:34:40.994Z,12.02
2022-10-07T06:35:43.513Z,12.43
2022-10-07T06:36:45.859Z,11.55
2022-10-07T06:37:48.586Z,10.93
2022-10-07T06:38:53.700Z,11.20
2022-10-07T06:40:00.459Z,10.45
2022-10-07T06:41:06.109Z,10.60
2022-10-07T06:42:09.798Z,10.80
2022-10-07T06:43:21.181Z,10.32
2022-10-07T06:44:30.474Z,9.32
2022-10-07T06:45:34.431Z,9.05
2022-10-07T06:47:39.706Z,8.63
2022-10-07T06:48:46.263Z,9.95
2022-10-07T06:49:50.261Z,9.32
2022-10-07T06:50:53.787Z,9.93
2022-10-07T06:51:56.311Z,9.70
2022-10-07T06:52:59.941Z,9.43
2022-10-07T06:54:05.316Z,9.18
2022-10-07T06:55:11.731Z,8.68
2022-10-07T06:56:14.974Z,8.38
2022-10-07T06:57:44.233Z,9.10
2022-10-07T06:58:43.119Z,9.43
2022-10-07T06:59:47.662Z,8.32
2022-10-07T07:00:52.701Z,9.40
2022-10-07T07:01:57.107Z,8.43
2022-10-07T07:03:02.363Z,9.20
2022-10-07T07:04:05.358Z,8.60
2022-10-07T07:05:09.184Z,8.65
2022-10-07T07:06:13.960Z,8.60
2022-10-07T07:07:16.561Z,8.27
2022-10-07T07:08:20.098Z,7.80
2022-10-07T07:09:23.076Z,8.05
2022-10-07T07:10:27.884Z,8.30
2022-10-07T07:11:37.098Z,8.25
2022-10-07T07:12:55.659Z,7.80
2022-10-07T07:13:58.723Z,7.95
2022-10-07T07:15:02.333Z,7.25
2022-10-07T07:16:06.667Z,7.75
2022-10-07T07:17:09.722Z,8.32
2022-10-07T07:18:12.234Z,7.50
2022-10-07T07:19:16.277Z,7.30
2022-10-07T07:20:18.509Z,7.72
2022-10-07T07:21:22.035Z,8.02
2022-10-07T07:22:24.737Z,7.53
2022-10-07T07:23:28.528Z,7.68
2022-10-07T07:24:31.290Z,8.40
2022-10-07T07:25:38.206Z,7.35
2022-10-07T07:26:40.623Z,7.45
2022-10-07T07:27:46.962Z,7.90
2022-10-07T07:28:53.248Z,7.03
2022-10-07T07:29:56.004Z,7.43
2022-10-07T07:30:58.279Z,7.00
2022-10-07T07:32:01.507Z,8.13
2022-10-07T07:33:06.749Z,7.40
2022-10-07T07:34:12.317Z,7.00
2022-10-07T07:35:15.338Z,7.20
2022-10-07T07:36:20.533Z,6.60
2022-10-07T07:37:25.072Z,7.07
2022-10-07T07:38:32.664Z,7.80
2022-10-07T07:39:35.027Z,7.13
2022-10-07T07:40:42.764Z,7.40
2022-10-07T07:41:47.919Z,7.57
2022-10-07T07:42:55.040Z,7.07
2022-10-07T07:43:59.510Z,6.13
2022-10-07T07:45:01.721Z,6.65
2022-10-07T07:46:05.231Z,7.05
2022-10-07T07:47:11.356Z,7.38
2022-10-07T07:48:17.697Z,7.05
2022-10-07T07:49:22.692Z,7.38
2022-10-07T07:50:27.595Z,6.57
2022-10-07T07:51:33.317Z,7.13
2022-10-07T07:52:36.323Z,7.05
2022-10-07T07:53:40.737Z,6.28
2022-10-07T07:54:44.072Z,6.50
2022-10-07T07:55:58.446Z,6.47
2022-10-07T07:57:02.311Z,6.60
2022-10-07T07:58:11.988Z,6.90
2022-10-07T07:59:16.128Z,6.55
2022-10-07T08:00:19.428Z,7.03
2022-10-07T08:01:33.031Z,7.40
2022-10-07T08:02:35.522Z,6.28
2022-10-07T08:03:40.460Z,6.53
2022-10-07T08:04:43.705Z,7.10
2022-10-07T08:05:48.104Z,6.75
2022-10-07T08:06:51.402Z,7.35
2022-10-07T08:07:55.993Z,7.80
2022-10-07T08:09:07.991Z,6.10
2022-10-07T08:10:21.041Z,6.20
2022-10-07T08:11:23.959Z,6.25
2022-10-07T08:12:26.286Z,6.07
2022-10-07T08:13:30.021Z,6.35
2022-10-07T08:14:32.553Z,5.90
2022-10-07T08:15:34.882Z,6.38
2022-10-07T08:16:38.182Z,6.32
2022-10-07T08:17:46.430Z,5.65
2022-10-07T08:18:51.580Z,5.95
2022-10-07T08:19:55.824Z,5.97
2022-10-07T08:21:03.315Z,6.05
2022-10-07T08:22:09.711Z,6.32
2022-10-07T08:23:15.119Z,6.03
2022-10-07T08:24:19.914Z,5.78
2022-10-07T08:25:22.729Z,6.03
2022-10-07T08:26:28.993Z,6.00
2022-10-07T08:27:33.680Z,5.95
2022-10-07T08:28:37.379Z,6.03
2022-10-07T08:30:42.252Z,5.35
2022-10-07T08:31:47.533Z,5.97
2022-10-07T08:32:49.966Z,6.03
2022-10-07T08:33:57.037Z,6.22
2022-10-07T08:34:59.438Z,5.70
2022-10-07T08:36:04.013Z,5.55
2022-10-07T08:37:13.021Z,5.72
2022-10-07T08:38:19.172Z,6.30
2022-10-07T08:39:25.900Z,5.72
2022-10-07T08:40:28.362Z,6.50
2022-10-07T08:41:42.087Z,6.03
2022-10-07T08:42:45.384Z,6.13
2022-10-07T08:43:51.210Z,5.82
2022-10-07T08:44:56.200Z,6.03
2022-10-07T08:46:02.049Z,5.72
2022-10-07T08:47:57.908Z,5.93
2022-10-07T08:49:06.956Z,6.10
2022-10-07T08:50:22.254Z,6.00
2022-10-07T08:51:41.757Z,5.20
2022-10-07T08:53:09.207Z,5.40
2022-10-07T08:54:20.066Z,6.05
2022-10-07T08:55:32.975Z,5.22
2022-10-07T08:56:35.525Z,5.25
2022-10-07T08:57:49.129Z,5.47
2022-10-07T08:59:10.953Z,5.97
2022-10-07T09:00:22.371Z,5.22
2022-10-07T09:01:32.298Z,5.80
2022-10-07T09:02:49.089Z,5.70
2022-10-07T09:04:15.463Z,5.90
2022-10-07T09:05:30.133Z,5.20
2022-10-07T09:06:53.579Z,5.57
2022-10-07T09:08:06.026Z,6.82
2022-10-07T09:09:24.161Z,5.68
2022-10-07T09:10:53.547Z,5.70
2022-10-07T09:12:00.441Z,5.40
2022-10-07T09:13:19.100Z,5.32
2022-10-07T09:14:48.112Z,5.30
2022-10-07T09:16:04.176Z,5.30
2022-10-07T09:17:18.165Z,5.28
2022-10-07T09:18:26.817Z,4.93
2022-10-07T09:19:42.246Z,5.18
2022-10-07T09:20:52.588Z,4.65
2022-10-07T09:22:00.557Z,5.22
2022-10-07T09:23:05.882Z,4.80
2022-10-07T09:24:20.086Z,4.70
2022-10-07T09:25:25.317Z,4.90
2022-10-07T09:26:28.043Z,4.88
2022-10-07T09:27:30.427Z,5.35
2022-10-07T09:28:33.714Z,5.00
2022-10-07T09:29:36.788Z,4.30
2022-10-07T09:30:39.441Z,4.53
2022-10-07T09:31:41.723Z,4.95
2022-10-07T09:32:46.250Z,3.58
2022-10-07T09:33:53.190Z,4.20
2022-10-07T09:34:55.492Z,4.20
2022-10-07T09:36:05.889Z,4.80
2022-10-07T09:37:19.938Z,4.35
2022-10-07T09:38:43.985Z,4.40
2022-10-07T09:39:47.947Z,4.68
2022-10-07T09:41:08.884Z,4.65
2022-10-07T09:42:38.222Z,4.50
2022-10-07T09:44:01.984Z,6.65
2022-10-07T09:45:21.575Z,5.30
2022-10-07T09:46:32.421Z,4.45
2022-10-07T09:47:42.257Z,4.63
2022-10-07T09:48:53.088Z,4.38
2022-10-07T09:49:59.867Z,4.38
2022-10-07T09:51:25.703Z,4.20
2022-10-07T09:52:30.524Z,4.60
2022-10-07T09:53:33.633Z,4.43
2022-10-07T09:54:39.574Z,4.57
2022-10-07T09:55:43.777Z,4.70
2022-10-07T09:56:47.438Z,5.18
2022-10-07T09:58:45.272Z,3.80
2022-10-07T09:59:47.776Z,3.97
2022-10-07T10:00:51.989Z,4.07
2022-10-07T10:01:57.723Z,4.20
2022-10-07T10:03:07.848Z,4.00
2022-10-07T10:05:30.339Z,4.07
2022-10-07T10:06:32.655Z,4.30
2022-10-07T10:07:36.748Z,4.00
2022-10-07T10:08:44.589Z,4.55
2022-10-07T10:10:27.334Z,4.13
2022-10-07T10:11:30.020Z,4.00
2022-10-07T10:12:45.474Z,6.35
2022-10-07T10:13:50.321Z,6.13
2022-10-07T10:14:55.434Z,4.63
2022-10-07T10:15:58.626Z,5.47
2022-10-07T10:17:01.228Z,6.32
2022-10-07T10:18:29.213Z,4.22
2022-10-07T10:19:36.432Z,4.10
2022-10-07T10:20:43.685Z,3.65
2022-10-07T10:21:52.474Z,4.60
2022-10-07T10:22:55.286Z,5.93
2022-10-07T10:24:00.393Z,4.93
2022-10-07T10:25:22.614Z,5.30
2022-10-07T10:28:01.990Z,5.75
2022-10-07T10:29:19.364Z,5.00
2022-10-07T10:30:23.953Z,4.82
2022-10-07T10:31:36.076Z,4.80
2022-10-07T10:33:09.854Z,5.10
2022-10-07T10:34:41.357Z,4.10
2022-10-07T10:35:49.715Z,4.00
2022-10-07T10:37:27.645Z,3.60
2022-10-07T10:38:47.288Z,3.80
2022-10-07T10:40:07.831Z,3.97
2022-10-07T10:41:39.567Z,6.10
2022-10-07T10:43:13.443Z,4.68
2022-10-07T10:44:38.779Z,5.15
2022-10-07T10:45:49.567Z,5.47
2022-10-07T10:47:00.337Z,5.10
2022-10-07T10:48:40.172Z,4.50
2022-10-07T10:50:16.055Z,4.32
2022-10-07T10:51:52.996Z,3.97
2022-10-07T10:53:24.505Z,3.95
2022-10-07T10:54:43.521Z,4.00
2022-10-07T10:56:04.043Z,4.35
2022-10-07T10:57:31.899Z,3.95
2022-10-07T10:58:54.388Z,4.13
2022-10-07T11:00:19.095Z,3.92
2022-10-07T11:01:41.993Z,3.92
2022-10-07T11:02:59.562Z,5.32
2022-10-07T11:04:05.139Z,4.53
2022-10-07T11:05:22.320Z,4.68
2022-10-07T11:06:28.815Z,6.85
2022-10-07T11:07:39.529Z,4.10
2022-10-07T11:08:41.901Z,4.10
2022-10-07T11:09:50.005Z,3.92
2022-10-07T11:10:59.818Z,4.30
2022-10-07T11:12:06.149Z,4.93
2022-10-07T11:13:19.176Z,4.70
2022-10-07T11:14:23.883Z,4.20
2022-10-07T11:15:35.302Z,4.70
2022-10-07T11:16:48.573Z,3.83
2022-10-07T11:17:53.804Z,3.47
2022-10-07T11:18:57.041Z,3.88
2022-10-07T11:20:14.162Z,4.15
2022-10-07T11:21:24.537Z,3.65
2022-10-07T11:22:36.649Z,4.00
2022-10-07T11:23:42.868Z,3.70
2022-10-07T11:24:55.034Z,3.60
2022-10-07T11:26:02.544Z,3.75
2022-10-07T11:27:15.162Z,3.72
2022-10-07T11:28:23.204Z,3.75
2022-10-07T11:30:04.903Z,4.65
2022-10-07T11:31:17.659Z,4.45
2022-10-07T11:32:45.673Z,4.05
2022-10-07T11:34:09.530Z,3.38
2022-10-07T11:35:21.165Z,3.53
2022-10-07T11:36:39.108Z,7.80
2022-10-07T11:37:56.537Z,6.75
2022-10-07T11:38:58.937Z,5.60
2022-10-07T11:40:05.666Z,5.57
2022-10-07T11:41:10.518Z,5.38
2022-10-07T11:42:26.742Z,4.20
2022-10-07T11:43:49.379Z,3.58
2022-10-07T11:45:00.434Z,3.50
2022-10-07T11:46:11.473Z,3.42
2022-10-07T11:47:20.310Z,3.30
2022-10-07T11:49:03.449Z,3.40
2022-10-07T11:50:20.742Z,3.72
2022-10-07T11:51:32.620Z,3.88
2022-10-07T11:52:41.288Z,3.50
2022-10-07T11:53:45.037Z,3.92
2022-10-07T11:56:12.633Z,4.05
2022-10-07T11:57:22.882Z,4.20
2022-10-07T11:58:37.340Z,3.80
2022-10-07T11:59:44.445Z,3.47
2022-10-07T12:00:47.031Z,3.58
2022-10-07T12:01:52.817Z,3.80
2022-10-07T12:02:57.469Z,3.67
2022-10-07T12:04:22.962Z,3.47
2022-10-07T12:05:33.960Z,3.60
2022-10-07T12:06:36.254Z,4.20
2022-10-07T12:08:00.039Z,3.72
2022-10-07T12:09:40.628Z,5.32
2022-10-07T12:10:43.146Z,3.60
2022-10-07T12:11:47.977Z,4.05
2022-10-07T12:12:53.898Z,3.60
2022-10-07T12:14:36.973Z,3.50
2022-10-07T12:15:45.332Z,3.58
2022-10-07T12:16:54.866Z,3.33
2022-10-07T12:18:19.925Z,3.58
2022-10-07T12:19:25.438Z,3.47
2022-10-07T12:20:34.694Z,3.13
2022-10-07T12:21:59.781Z,3.63
2022-10-07T12:23:17.592Z,3.97
2022-10-07T12:24:46.250Z,3.58
2022-10-07T12:27:31.096Z,3.47
2022-10-07T12:28:40.917Z,3.85
2022-10-07T12:29:58.858Z,3.78
2022-10-07T12:31:09.745Z,3.60
2022-10-07T12:32:49.628Z,4.15
2022-10-07T12:33:56.216Z,3.40
2022-10-07T12:35:54.236Z,3.80
2022-10-07T12:37:36.780Z,3.45
2022-10-07T12:38:39.300Z,4.00
2022-10-07T12:39:42.042Z,4.00
2022-10-07T12:40:59.521Z,4.07
2022-10-07T12:42:05.207Z,4.10
2022-10-07T12:43:20.023Z,4.32
2022-10-07T12:44:52.992Z,4.20
2022-10-07T12:45:56.573Z,3.90
2022-10-07T12:46:59.266Z,3.90
2022-10-07T12:48:03.001Z,3.72
2022-10-07T12:50:19.895Z,3.80
2022-10-07T12:51:31.257Z,3.83
2022-10-07T12:52:53.159Z,3.92
2022-10-07T12:53:59.348Z,3.97
2022-10-07T12:55:11.267Z,3.88
2022-10-07T12:56:21.638Z,3.80
2022-10-07T12:57:25.697Z,3.60
2022-10-07T12:58:55.794Z,3.72
2022-10-07T13:00:12.418Z,3.63
2022-10-07T13:01:53.755Z,4.10
2022-10-07T13:03:22.238Z,3.63
2022-10-07T13:04:39.356Z,3.47
2022-10-07T13:06:09.964Z,3.72
2022-10-07T13:07:57.721Z,3.90
2022-10-07T13:09:20.283Z,3.60
2022-10-07T13:10:40.592Z,3.50
2022-10-07T13:11:52.425Z,3.65
2022-10-07T13:13:03.076Z,3.85
2022-10-07T13:14:28.977Z,3.97
2022-10-07T13:15:42.909Z,4.30
2022-10-07T13:16:55.191Z,4.13
2022-10-07T13:18:12.754Z,3.70
2022-10-07T13:19:20.372Z,3.33
2022-10-07T13:20:58.167Z,3.92
2022-10-07T13:22:16.654Z,4.07
2022-10-07T13:23:26.841Z,3.90
2022-10-07T13:24:32.460Z,4.00
2022-10-07T13:25:34.834Z,3.80
2022-10-07T13:26:37.570Z,4.10
2022-10-07T13:27:42.174Z,4.00
2022-10-07T13:28:53.660Z,3.60
2022-10-07T13:30:00.701Z,3.88
2022-10-07T13:31:36.111Z,3.90
2022-10-07T13:32:38.779Z,3.90
2022-10-07T13:33:43.458Z,3.97
2022-10-07T13:34:46.603Z,4.07
2022-10-07T13:35:50.428Z,3.60
2022-10-07T13:36:52.927Z,3.90
2022-10-07T13:37:55.483Z,3.90
2022-10-07T13:39:20.696Z,3.97
2022-10-07T13:40:28.487Z,4.25
2022-10-07T13:41:30.925Z,4.10
2022-10-07T13:42:33.423Z,4.38
2022-10-07T13:43:37.696Z,4.72
2022-10-07T13:44:43.929Z,4.30
2022-10-07T13:45:47.374Z,3.75
2022-10-07T13:47:01.556Z,3.85
2022-10-07T13:48:03.999Z,4.20
2022-10-07T13:49:06.897Z,3.95
2022-10-07T13:50:16.786Z,3.60
2022-10-07T13:51:27.947Z,3.78
2022-10-07T13:52:40.125Z,3.88
2022-10-07T13:53:43.076Z,4.05
2022-10-07T13:54:51.690Z,4.10
2022-10-07T13:56:18.871Z,4.05
2022-10-07T13:57:22.179Z,3.97
2022-10-07T13:58:25.227Z,4.03
2022-10-07T13:59:29.387Z,4.57
2022-10-07T14:00:34.770Z,4.72
2022-10-07T14:01:40.327Z,3.95
2022-10-07T14:02:43.895Z,4.20
2022-10-07T14:04:08.255Z,3.97
2022-10-07T14:05:24.168Z,4.07
2022-10-07T14:06:36.866Z,3.70
2022-10-07T14:07:42.073Z,3.67
2022-10-07T14:08:50.777Z,4.18
2022-10-07T14:09:58.908Z,3.90
2022-10-07T14:11:10.425Z,5.22
2022-10-07T14:12:21.153Z,3.92
2022-10-07T14:13:24.227Z,6.80
2022-10-07T14:14:32.704Z,10.40
2022-10-07T14:15:36.997Z,6.93
2022-10-07T14:16:39.567Z,5.95
2022-10-07T14:17:48.207Z,7.47
2022-10-07T14:18:52.858Z,5.15
2022-10-07T14:20:05.930Z,8.40
2022-10-07T14:21:13.442Z,6.50
2022-10-07T14:22:53.667Z,5.47
2022-10-07T14:23:56.127Z,8.77
2022-10-07T14:25:01.842Z,9.55
2022-10-07T14:26:09.929Z,9.48
2022-10-07T14:27:52.913Z,10.93
2022-10-07T14:28:55.740Z,4.82
2022-10-07T14:29:59.053Z,4.13
2022-10-07T14:31:26.253Z,3.95
2022-10-07T14:32:47.960Z,5.72
2022-10-07T14:34:24.253Z,4.22
2022-10-07T14:35:27.384Z,5.13
2022-10-07T14:36:30.269Z,5.47
2022-10-07T14:37:32.714Z,4.50
2022-10-07T14:38:35.217Z,4.47
2022-10-07T14:39:39.260Z,4.57
2022-10-07T14:40:41.651Z,4.78
2022-10-07T14:41:44.258Z,4.63
2022-10-07T14:42:50.248Z,4.82
2022-10-07T14:43:53.627Z,4.45
2022-10-07T14:44:57.802Z,4.10
2022-10-07T14:46:19.022Z,4.45
2022-10-07T14:47:28.399Z,4.68
2022-10-07T14:48:30.805Z,4.07
2022-10-07T14:49:33.403Z,4.72
2022-10-07T14:50:35.989Z,4.70
2022-10-07T14:51:39.085Z,5.18
2022-10-07T14:52:47.641Z,6.93
2022-10-07T14:53:53.022Z,6.38
2022-10-07T14:55:00.742Z,4.75
2022-10-07T14:56:04.510Z,6.88
2022-10-07T14:57:09.375Z,7.28
2022-10-07T14:58:12.378Z,6.40
2022-10-07T14:59:15.244Z,5.80
2022-10-07T15:00:20.855Z,6.28
2022-10-07T15:01:24.757Z,6.13
2022-10-07T15:02:27.677Z,5.35
2022-10-07T15:03:33.856Z,4.65
2022-10-07T15:04:36.398Z,5.38
2022-10-07T15:05:38.943Z,5.32
2022-10-07T15:06:41.783Z,5.28
2022-10-07T15:07:44.736Z,7.88
2022-10-07T15:08:48.418Z,6.07
2022-10-07T15:09:50.860Z,8.73
2022-10-07T15:10:55.643Z,8.43
2022-10-07T15:11:58.249Z,9.77
2022-10-07T15:13:00.752Z,9.45
2022-10-07T15:14:03.304Z,9.70
2022-10-07T15:15:06.442Z,6.68
2022-10-07T15:16:16.518Z,8.65
2022-10-07T15:17:18.957Z,6.93
2022-10-07T15:18:22.362Z,6.85
2022-10-07T15:19:26.516Z,7.45
2022-10-07T15:20:28.960Z,6.90
2022-10-07T15:21:34.277Z,7.22